地図

経路データ

SID SEASON NUMBER BASIN SUBBASIN NAME ISO_TIME NATURE LAT LON WMO_WIND WMO_PRES WMO_AGENCY TRACK_TYPE DIST2LAND LANDFALL IFLAG USA_AGENCY USA_ATCF_ID USA_LAT USA_LON USA_RECORD USA_STATUS USA_WIND USA_PRES USA_SSHS USA_R34_NE USA_R34_SE USA_R34_SW USA_R34_NW USA_R50_NE USA_R50_SE USA_R50_SW USA_R50_NW USA_R64_NE USA_R64_SE USA_R64_SW USA_R64_NW USA_POCI USA_ROCI USA_RMW USA_EYE TOKYO_LAT TOKYO_LON TOKYO_GRADE TOKYO_WIND TOKYO_PRES TOKYO_R50_DIR TOKYO_R50_LONG TOKYO_R50_SHORT TOKYO_R30_DIR TOKYO_R30_LONG TOKYO_R30_SHORT TOKYO_LAND CMA_LAT CMA_LON CMA_CAT CMA_WIND CMA_PRES HKO_LAT HKO_LON HKO_CAT HKO_WIND HKO_PRES NEWDELHI_LAT NEWDELHI_LON NEWDELHI_GRADE NEWDELHI_WIND NEWDELHI_PRES NEWDELHI_CI NEWDELHI_DP NEWDELHI_POCI REUNION_LAT REUNION_LON REUNION_TYPE REUNION_WIND REUNION_PRES REUNION_TNUM REUNION_CI REUNION_RMW REUNION_R34_NE REUNION_R34_SE REUNION_R34_SW REUNION_R34_NW REUNION_R50_NE REUNION_R50_SE REUNION_R50_SW REUNION_R50_NW REUNION_R64_NE REUNION_R64_SE REUNION_R64_SW REUNION_R64_NW BOM_LAT BOM_LON BOM_TYPE BOM_WIND BOM_PRES BOM_TNUM BOM_CI BOM_RMW BOM_R34_NE BOM_R34_SE BOM_R34_SW BOM_R34_NW BOM_R50_NE BOM_R50_SE BOM_R50_SW BOM_R50_NW BOM_R64_NE BOM_R64_SE BOM_R64_SW BOM_R64_NW BOM_ROCI BOM_POCI BOM_EYE BOM_POS_METHOD BOM_PRES_METHOD NADI_LAT NADI_LON NADI_CAT NADI_WIND NADI_PRES WELLINGTON_LAT WELLINGTON_LON WELLINGTON_WIND WELLINGTON_PRES DS824_LAT DS824_LON DS824_STAGE DS824_WIND DS824_PRES TD9636_LAT TD9636_LON TD9636_STAGE TD9636_WIND TD9636_PRES TD9635_LAT TD9635_LON TD9635_WIND TD9635_PRES TD9635_ROCI NEUMANN_LAT NEUMANN_LON NEUMANN_CLASS NEUMANN_WIND NEUMANN_PRES MLC_LAT MLC_LON MLC_CLASS MLC_WIND MLC_PRES USA_GUST BOM_GUST BOM_GUST_PER REUNION_GUST REUNION_GUST_PER USA_SEAHGT USA_SEARAD_NE USA_SEARAD_SE USA_SEARAD_SW USA_SEARAD_NW STORM_SPEED STORM_DIR
1982213N13145 1982 55 WP MM CECIL 1982-08-01 06:00:00 TS 13.0000 144.500 main 1707 1707 __O___________ -1 13.0000 144.500 0 17 1006 12 299
1982213N13145 1982 55 WP MM CECIL 1982-08-01 09:00:00 TS 13.2828 143.968 main 1749 1749 __P___________ -1 13.2828 143.968 0 17 1006 11 297
1982213N13145 1982 55 WP MM CECIL 1982-08-01 12:00:00 TS 13.5000 143.500 main 1780 1780 __O___________ -1 13.5000 143.500 0 17 1006 9 292
1982213N13145 1982 55 WP MM CECIL 1982-08-01 15:00:00 TS 13.6148 143.135 main 1786 1783 __P___________ -1 13.6148 143.135 0 17 1006 7 286
1982213N13145 1982 55 WP MM CECIL 1982-08-01 18:00:00 TS 13.7000 142.800 main 1787 1781 __O___________ -1 13.7000 142.800 0 17 1006 8 285
1982213N13145 1982 55 WP MM CECIL 1982-08-01 21:00:00 TS 13.8051 142.385 main 1785 1781 __P___________ -1 13.8051 142.385 0 17 1006 8 291
1982213N13145 1982 55 WP MM CECIL 1982-08-02 00:00:00 TS 14.0000 142.000 main 1789 1773 __O___________ -1 14.0000 142.000 0 17 1006 8 313
1982213N13145 1982 55 WP MM CECIL 1982-08-02 03:00:00 TS 14.3697 141.765 main 1777 1754 __P___________ -1 14.3697 141.765 0 17 1006 9 329
1982213N13145 1982 55 WP MM CECIL 1982-08-02 06:00:00 TS 14.8000 141.500 main 1754 1717 __O___________ -1 14.8000 141.500 0 17 1006 10 318
1982213N13145 1982 55 WP MM CECIL 1982-08-02 09:00:00 TS 15.1349 141.060 main 1717 1661 __P___________ -1 15.1349 141.060 0 17 1006 12 306
1982213N13145 1982 55 WP MM CECIL 1982-08-02 12:00:00 TS 15.5000 140.500 main 1661 1607 __O___________ -1 15.5000 140.500 0 17 1006 14 307
1982213N13145 1982 55 WP MM CECIL 1982-08-02 15:00:00 TS 15.9772 139.902 main 1610 1552 __P___________ -1 15.9772 139.902 0 17 1006 16 309
1982213N13145 1982 55 WP MM CECIL 1982-08-02 18:00:00 TS 16.5000 139.200 main 1552 1498 __O___________ -1 16.5000 139.200 0 17 1006 18 306
1982213N13145 1982 55 WP MM CECIL 1982-08-02 21:00:00 TS 17.0372 138.403 main 1488 1429 __P___________ -1 17.0372 138.403 0 18 1006 19 302
1982213N13145 1982 55 WP MM CECIL 1982-08-03 00:00:00 TS 17.5000 137.500 main 1419 1346 __O___________ -1 17.5000 137.500 0 19 1006 20 295
1982213N13145 1982 55 WP MM CECIL 1982-08-03 03:00:00 TS 17.8623 136.523 main 1342 1263 __P___________ -1 17.8623 136.523 0 19 1006 20 285
1982213N13145 1982 55 WP MM CECIL 1982-08-03 06:00:00 TS 18.0000 135.500 main 1254 1152 __O___________ -1 18.0000 135.500 0 19 1006 20 267
1982213N13145 1982 55 WP MM CECIL 1982-08-03 09:00:00 TS 17.7500 134.460 main 1152 1044 __P___________ -1 17.7500 134.460 0 19 1006 20 255
1982213N13145 1982 55 WP MM CECIL 1982-08-03 12:00:00 TS 17.5000 133.500 main 1044 989 __O___________ -1 17.5000 133.500 0 19 1006 17 267
1982213N13145 1982 55 WP MM CECIL 1982-08-03 15:00:00 TS 17.6742 132.713 main 984 933 __P___________ -1 17.6742 132.713 0 21 1005 15 289
1982213N13145 1982 55 WP MM CECIL 1982-08-03 18:00:00 TS 18.0000 132.000 main 933 880 __O___________ -1 18.0000 132.000 1 23 1004 15 292
1982213N13145 1982 55 WP MM CECIL 1982-08-03 21:00:00 TS 18.2497 131.250 main 871 788 __P___________ -1 18.2497 131.250 1 23 1004 15 270
1982213N13145 1982 55 WP MM CECIL 1982-08-04 00:00:00 TS 18.0000 130.400 1006 tokyo main 788 729 _OO___________ -1 16.0000 130.000 2 1006 0 0 0 18.5000 130.500 1 23 1004 16 259
1982213N13145 1982 55 WP MM CECIL 1982-08-04 03:00:00 TS 17.9670 129.647 main 720 680 _PP___________ -1 16.3852 129.590 2 1005 0 0 18.7579 129.675 1 23 1003 13 273
1982213N13145 1982 55 WP MM CECIL 1982-08-04 06:00:00 TS 18.0571 129.086 1004 tokyo main 688 664 _OO___________ -1 16.8000 129.200 2 1004 0 0 0 19.0000 129.000 1 23 1003 9 288
1982213N13145 1982 55 WP MM CECIL 1982-08-04 09:00:00 TS 18.2383 128.773 main 672 672 _PP___________ -1 17.2699 128.842 2 1003 0 0 19.2068 128.704 1 23 1003 8 353
1982213N13145 1982 55 WP MM CECIL 1982-08-04 12:00:00 TS 18.8400 128.980 1002 tokyo main 707 669 OOO_______O___ jtwc_wp WP121982 19.8000 130.900 20 -1 17.8000 128.500 2 1002 0 0 0 19.4000 128.500 1 23 1003 19.8000 130.900 0 20 11 349
1982213N13145 1982 55 WP MM CECIL 1982-08-04 15:00:00 TS 19.3023 128.550 main 670 614 PPP_______P___ WP121982 19.8957 129.125 20 -1 18.3849 128.157 2 1002 0 0 19.6078 128.050 1 23 1003 19.9328 129.761 0 20 13 310
1982213N13145 1982 55 WP MM CECIL 1982-08-04 18:00:00 TS 19.6698 127.933 1002 tokyo main 606 564 OOO_______P___ jtwc_wp WP121982 20.0000 127.800 20 -1 19.0000 127.800 2 1002 0 0 0 19.8000 127.600 1 23 1003 20.0589 128.687 0 20 13 303
1982213N13145 1982 55 WP MM CECIL 1982-08-04 21:00:00 TS 19.9844 127.425 main 564 532 PPP_______P___ WP121982 20.1401 127.212 20 -1 19.6599 127.415 2 1001 0 0 19.9573 127.327 1 23 1001 20.1802 127.744 0 20 10 303
1982213N13145 1982 55 WP MM CECIL 1982-08-05 00:00:00 TS 20.2250 127.025 1000 tokyo main 532 512 OOO_______O___ jtwc_wp WP121982 20.3000 127.000 20 -1 20.2000 127.000 2 1000 0 0 0 20.1000 127.100 1 23 1000 20.3000 127.000 0 20 9 300
1982213N13145 1982 55 WP MM CECIL 1982-08-05 03:00:00 TS 20.4118 126.637 main 503 480 PPP_______P___ WP121982 20.4649 126.685 22 -1 20.4825 126.550 2 1000 0 0 20.2799 126.815 1 26 999 20.4201 126.497 0 21 7 294
1982213N13145 1982 55 WP MM CECIL 1982-08-05 06:00:00 TS 20.5256 126.308 1000 tokyo main 480 459 OOOO______P___ jtwc_wp WP121982 20.6000 126.400 25 -1 20.6000 126.100 2 1000 0 0 0 20.4000 126.500 1 29 998 20.4000 126.500 TD 25 999 20.5336 126.182 0 22 6 285
1982213N13145 1982 55 WP MM CECIL 1982-08-05 09:00:00 TS 20.5723 125.990 main 459 433 PPPP______P___ WP121982 20.6500 126.100 25 -1 20.6874 125.685 2 1000 0 0 20.3499 126.165 1 29 997 20.5151 126.060 TD 25 999 20.6305 125.976 0 23 6 277
1982213N13145 1982 55 WP MM CECIL 1982-08-05 12:00:00 TS 20.6000 125.663 1000 tokyo main 433 406 OOOO______O___ jtwc_wp WP121982 20.7000 125.800 25 -1 20.7000 125.300 2 1000 0 0 0 20.3000 125.800 1 29 996 20.6000 125.600 TD 25 999 20.7000 125.800 1 25 7 279
1982213N13145 1982 55 WP MM CECIL 1982-08-05 15:00:00 TS 20.6785 125.284 main 406 382 PPPP______P___ WP121982 20.8800 125.485 27 -1 20.6800 124.912 2 999 0 0 20.4576 125.393 1 29 995 20.6301 125.120 TD 25 999 20.7450 125.511 1 27 7 280
1982213N13145 1982 55 WP MM CECIL 1982-08-05 18:00:00 TS 20.7120 124.948 998 tokyo main 374 351 OOOO______P___ jtwc_wp WP121982 21.0000 125.200 30 -1 20.6000 124.600 2 998 0 0 0 20.6000 125.000 1 29 995 20.6000 124.700 TD 25 999 20.7600 125.240 1 30 6 266
1982213N13145 1982 55 WP MM CECIL 1982-08-05 21:00:00 TS 20.6390 124.669 main 351 329 PPPP______P___ WP121982 20.9175 124.970 32 -1 20.4574 124.390 2 996 0 0 20.5525 124.625 1 33 993 20.5224 124.360 TD 27 996 20.7450 124.999 1 32 5 243
1982213N13145 1982 55 WP MM CECIL 1982-08-06 00:00:00 TS 20.5000 124.500 40 994 tokyo main 329 313 OOOO______O___ jtwc_wp WP121982 20.7000 124.800 35 0 20.3000 124.300 3 40 994 0 9 100 100 0 20.4000 124.400 2 38 992 20.4000 124.200 TD 30 994 20.7000 124.800 2 35 4 206
1982213N13145 1982 55 WP MM CECIL 1982-08-06 03:00:00 TS 20.2977 124.490 main 313 306 PPPP______P___ WP121982 20.3625 124.685 40 0 20.1625 124.335 3 42 992 0 9 100 100 20.1550 124.470 2 38 989 20.2125 124.305 TD 32 990 20.5960 124.657 2 38 3 172
1982213N13145 1982 55 WP MM CECIL 1982-08-06 06:00:00 TS 20.1539 124.531 45 990 tokyo main 306 299 OOOO______P___ jtwc_wp WP121982 20.1000 124.600 45 0 20.1000 124.400 3 45 990 0 9 100 100 0 20.0000 124.600 2 38 987 20.1000 124.500 TS 35 986 20.4697 124.555 2 42 1 0
1982213N13145 1982 55 WP MM CECIL 1982-08-06 09:00:00 TS 20.2072 124.495 main 306 306 PPPP______P___ WP121982 20.1400 124.500 47 0 20.1775 124.365 3 47 987 0 9 100 100 20.1550 124.530 2 43 985 20.2050 124.602 TS 37 985 20.3586 124.475 2 46 2 331
1982213N13145 1982 55 WP MM CECIL 1982-08-06 12:00:00 TS 20.3400 124.420 50 985 tokyo main 306 306 OOOO______O___ jtwc_wp WP121982 20.3000 124.400 50 0 20.3000 124.300 4 50 985 0 9 100 100 0 20.4000 124.400 3 48 983 20.4000 124.600 TS 40 985 20.3000 124.400 2 50 3 324
1982213N13145 1982 55 WP MM CECIL 1982-08-06 15:00:00 TS 20.4323 124.318 main 306 306 PPPP______P___ WP121982 20.4000 124.300 52 0 20.3425 124.257 4 50 982 0 9 100 100 20.5075 124.292 3 48 980 20.5651 124.438 TS 45 982 20.3465 124.304 2 53 3 313
1982213N13145 1982 55 WP MM CECIL 1982-08-06 18:00:00 TS 20.5295 124.202 50 980 tokyo main 307 307 OOOO______P___ jtwc_wp WP121982 20.5000 124.200 55 0 20.4000 124.200 4 50 980 0 9 100 100 0 20.6000 124.200 3 48 977 20.7000 124.200 STS 50 980 20.4475 124.208 2 57 3 316
1982213N13145 1982 55 WP MM CECIL 1982-08-06 21:00:00 TS 20.6494 124.091 main 310 310 PPPP______P___ WP121982 20.6000 124.107 60 0 20.5500 124.100 4 52 975 0 9 125 125 20.7650 124.150 3 53 974 20.7575 123.992 STS 52 977 20.5746 124.107 2 61 3 318
1982213N13145 1982 55 WP MM CECIL 1982-08-07 00:00:00 TS 20.7600 123.980 55 970 tokyo main 322 316 OOOO______O___ jtwc_wp WP121982 20.7000 124.000 65 1 20.7000 124.000 4 55 970 9 30 30 9 150 150 0 20.9000 124.100 3 58 971 20.8000 123.800 STS 55 974 20.7000 124.000 4 65 3 310
1982213N13145 1982 55 WP MM CECIL 1982-08-07 03:00:00 TS 20.8331 123.857 main 316 311 PPPP______P___ WP121982 20.8075 123.850 67 1 20.7650 123.942 4 60 962 9 77 55 9 175 150 20.9150 124.000 3 63 964 20.9000 123.628 STS 62 969 20.7782 123.866 4 71 3 300
1982213N13145 1982 55 WP MM CECIL 1982-08-07 06:00:00 TS 20.8900 123.746 65 955 tokyo main 310 310 OOOO______P___ jtwc_wp WP121982 20.9000 123.700 70 1 20.8000 123.900 5 65 955 3 125 80 3 200 150 0 20.9000 123.900 4 68 957 21.0000 123.500 T 70 965 20.8501 123.728 4 77 2 303
1982213N13145 1982 55 WP MM CECIL 1982-08-07 09:00:00 TS 20.9459 123.669 main 310 296 PPPP______P___ WP121982 20.9575 123.585 80 1 20.8500 123.857 5 77 947 3 125 80 3 200 150 20.9500 123.865 4 77 948 21.0500 123.435 T 80 955 20.9219 123.600 4 83 2 308
1982213N13145 1982 55 WP MM CECIL 1982-08-07 12:00:00 TS 21.0000 123.600 90 940 tokyo main 296 287 OOOO______O___ jtwc_wp WP121982 21.0000 123.500 90 2 20.9000 123.800 5 90 940 3 125 80 3 200 150 0 21.0000 123.800 5 87 939 21.1000 123.400 ST 90 945 21.0000 123.500 4 90 2 302
1982213N13145 1982 55 WP MM CECIL 1982-08-07 15:00:00 TS 21.0432 123.504 main 287 273 PPPP______P___ WP121982 21.0350 123.435 100 3 20.9350 123.707 5 90 935 3 125 80 3 200 150 20.9776 123.592 5 92 933 21.2000 123.343 ST 90 942 21.0684 123.442 4 96 2 303
1982213N13145 1982 55 WP MM CECIL 1982-08-07 18:00:00 TS 21.1095 123.423 90 930 tokyo main 273 270 OOOO______P___ jtwc_wp WP121982 21.1000 123.400 110 3 21.0000 123.600 5 90 930 3 125 80 3 200 150 0 21.0000 123.400 5 97 927 21.3000 123.300 ST 90 940 21.1474 123.412 4 102 2 329
1982213N13145 1982 55 WP MM CECIL 1982-08-07 21:00:00 TS 21.2195 123.391 main 270 264 PPPP______P___ WP121982 21.2350 123.400 112 3 21.1200 123.485 5 95 927 3 125 80 3 200 150 21.1625 123.377 5 101 925 21.3275 123.292 ST 95 932 21.2528 123.402 4 108 3 351
1982213N13145 1982 55 WP MM CECIL 1982-08-08 00:00:00 TS 21.3800 123.380 100 925 tokyo main 264 260 OOOO______O___ jtwc_wp WP121982 21.4000 123.400 115 4 21.3000 123.400 5 100 925 3 125 80 3 200 150 0 21.4000 123.400 6 106 924 21.4000 123.300 SuperT 100 924 21.4000 123.400 4 115 4 354
1982213N13145 1982 55 WP MM CECIL 1982-08-08 03:00:00 TS 21.5846 123.349 main 250 243 PPPP______P___ WP121982 21.5200 123.343 117 4 21.5350 123.385 5 100 925 3 125 80 3 237 150 21.6500 123.343 6 111 920 21.6275 123.300 SuperT 100 924 21.5906 123.377 4 116 4 354
1982213N13145 1982 55 WP MM CECIL 1982-08-08 06:00:00 TS 21.8250 123.333 100 925 tokyo main 243 224 OOOO______P___ jtwc_wp WP121982 21.7000 123.300 120 4 21.8000 123.400 5 100 925 2 125 80 2 275 150 0 21.9000 123.300 6 116 917 21.9000 123.300 SuperT 100 924 21.8250 123.363 4 117 5 357
1982213N13145 1982 55 WP MM CECIL 1982-08-08 09:00:00 TS 22.0719 123.337 main 224 219 PPPP______P___ WP121982 22.0350 123.335 120 4 22.0425 123.385 5 105 922 2 112 77 2 237 150 22.0925 123.328 6 116 918 22.0925 123.270 SuperT 105 922 22.0969 123.368 4 118 5 3
1982213N13145 1982 55 WP MM CECIL 1982-08-08 12:00:00 TS 22.3400 123.380 110 920 tokyo main 223 215 OOOO______O___ jtwc_wp WP121982 22.4000 123.400 120 4 22.3000 123.400 5 110 920 2 100 75 2 200 150 0 22.3000 123.400 6 116 920 22.3000 123.300 SuperT 110 920 22.4000 123.400 4 120 6 14
1982213N13145 1982 55 WP MM CECIL 1982-08-08 15:00:00 TS 22.6065 123.481 main 222 217 PPPP______P___ WP121982 22.6350 123.435 122 4 22.5700 123.485 5 110 920 2 100 75 2 200 150 22.5550 123.493 6 116 921 22.5551 123.492 SuperT 110 920 22.7173 123.499 4 120 6 19
1982213N13145 1982 55 WP MM CECIL 1982-08-08 18:00:00 TS 22.9325 123.604 110 920 tokyo main 226 224 OOOO______P___ jtwc_wp WP121982 22.9000 123.500 125 4 22.9000 123.600 5 110 920 2 100 75 2 200 150 0 22.9000 123.600 6 116 923 22.9000 123.700 SuperT 110 920 23.0627 123.621 4 120 8 16
1982213N13145 1982 55 WP MM CECIL 1982-08-08 21:00:00 TS 23.3733 123.723 main 220 207 PPPP______P___ WP121982 23.3276 123.657 122 4 23.3425 123.715 5 105 922 2 100 75 2 200 150 23.3775 123.722 6 116 924 23.3925 123.788 SuperT 110 920 23.4267 123.733 4 120 9 11
1982213N13145 1982 55 WP MM CECIL 1982-08-09 00:00:00 TS 23.8400 123.800 100 925 tokyo main 207 195 OOOO______O___ jtwc_wp WP121982 23.8000 123.800 120 4 23.8000 123.800 5 100 925 3 100 75 3 200 150 0 23.9000 123.800 6 116 925 23.9000 123.800 SuperT 110 920 23.8000 123.800 4 120 9 4
1982213N13145 1982 55 WP MM CECIL 1982-08-09 03:00:00 TS 24.2396 123.800 main 195 177 PPPP______P___ WP121982 24.2149 123.845 115 4 24.1500 123.830 5 100 927 3 100 67 3 200 150 24.3800 123.773 6 116 928 24.2650 123.765 SuperT 105 922 24.1880 123.788 4 116 8 356
1982213N13145 1982 55 WP MM CECIL 1982-08-09 06:00:00 TS 24.6160 123.745 100 930 tokyo main 177 171 OOOO______P___ jtwc_wp WP121982 24.6000 123.800 110 3 24.5000 123.800 5 100 930 3 100 60 3 200 150 0 24.8000 123.700 6 116 931 24.6000 123.700 SuperT 100 925 24.5799 123.726 4 112 8 352
1982213N13145 1982 55 WP MM CECIL 1982-08-09 09:00:00 TS 25.0108 123.675 main 171 161 PPPP______P___ WP121982 24.9725 123.665 107 3 24.9725 123.730 5 95 932 3 112 60 3 200 150 25.1299 123.680 6 111 933 25.0225 123.672 SuperT 97 930 24.9568 123.625 4 108 8 347
1982213N13145 1982 55 WP MM CECIL 1982-08-09 12:00:00 TS 25.3600 123.560 90 935 tokyo main 166 151 OOOO______O___ jtwc_wp WP121982 25.3000 123.500 105 3 25.4000 123.600 5 90 935 3 125 60 3 200 150 0 25.4000 123.600 6 106 936 25.4000 123.600 ST 95 935 25.3000 123.500 4 105 7 336
1982213N13145 1982 55 WP MM CECIL 1982-08-09 15:00:00 TS 25.6161 123.379 main 155 149 PPPP______P___ WP121982 25.5649 123.407 102 3 25.6376 123.393 5 90 937 3 92 60 3 200 150 25.6727 123.350 6 101 937 25.6151 123.415 ST 95 935 25.5902 123.331 4 102 6 325
1982213N13145 1982 55 WP MM CECIL 1982-08-09 18:00:00 TS 25.8290 123.190 90 940 tokyo main 149 149 OOOO______P___ jtwc_wp WP121982 25.8000 123.300 100 3 25.8000 123.200 5 90 940 9 60 60 3 200 150 0 25.9000 123.100 5 97 938 25.8000 123.200 ST 95 935 25.8452 123.148 4 100 5 325
1982213N13145 1982 55 WP MM CECIL 1982-08-09 21:00:00 TS 26.0570 123.034 main 158 158 PPPP______P___ WP121982 26.0501 123.070 97 3 26.0000 123.112 5 90 940 9 60 60 3 200 150 26.0499 122.997 5 92 940 26.1075 122.998 ST 92 937 26.0776 122.991 4 97 5 335
1982213N13145 1982 55 WP MM CECIL 1982-08-10 00:00:00 TS 26.2800 122.960 90 940 tokyo main 176 176 OOOO______O___ jtwc_wp WP121982 26.3000 122.900 95 2 26.2000 123.100 5 90 940 9 60 60 3 200 150 0 26.2000 123.000 5 87 942 26.4000 122.900 ST 90 940 26.3000 122.900 4 95 4 0
1982213N13145 1982 55 WP MM CECIL 1982-08-10 03:00:00 TS 26.4982 123.026 main 195 195 PPPP______P___ WP121982 26.5575 122.955 92 2 26.3775 123.135 5 90 940 9 60 60 3 200 150 26.4425 123.092 5 87 943 26.5650 123.012 ST 87 942 26.5484 122.935 4 92 5 21
1982213N13145 1982 55 WP MM CECIL 1982-08-10 06:00:00 TS 26.7175 123.148 90 940 tokyo main 219 219 OOOO______P___ jtwc_wp WP121982 26.8000 123.100 90 2 26.6000 123.200 5 90 940 9 60 60 3 200 150 0 26.7000 123.200 5 87 945 26.7000 123.200 ST 85 945 26.7876 123.039 4 90 5 21
1982213N13145 1982 55 WP MM CECIL 1982-08-10 09:00:00 TS 26.9621 123.231 main 214 207 PPPP______P___ WP121982 27.0225 123.207 87 2 26.9800 123.257 5 82 947 9 60 60 3 187 125 26.9075 123.200 5 82 947 26.8925 123.315 ST 82 947 27.0079 123.173 4 87 5 17
1982213N13145 1982 55 WP MM CECIL 1982-08-10 12:00:00 TS 27.1800 123.300 75 955 tokyo main 207 200 OOOO______O___ jtwc_wp WP121982 27.2000 123.300 85 2 27.3000 123.300 5 75 955 9 60 60 3 175 100 0 27.1000 123.200 4 77 950 27.1000 123.400 T 80 950 27.2000 123.300 4 85 4 18
1982213N13145 1982 55 WP MM CECIL 1982-08-10 15:00:00 TS 27.3196 123.354 main 209 203 PPPP______P___ WP121982 27.3075 123.358 80 1 27.3225 123.300 5 72 957 9 60 60 3 175 100 27.3150 123.300 4 72 952 27.3075 123.458 T 77 952 27.3456 123.357 4 81 3 19
1982213N13145 1982 55 WP MM CECIL 1982-08-10 18:00:00 TS 27.4330 123.400 70 960 tokyo main 203 193 OOOO______P___ jtwc_wp WP121982 27.4000 123.400 75 1 27.3000 123.300 5 70 960 9 60 60 3 175 100 0 27.5000 123.400 4 68 955 27.5000 123.500 T 75 955 27.4649 123.400 4 77 3 15
1982213N13145 1982 55 WP MM CECIL 1982-08-10 21:00:00 TS 27.5783 123.434 main 193 193 PPPP______P___ WP121982 27.5425 123.457 72 1 27.4925 123.327 5 65 960 9 55 55 3 187 137 27.6225 123.393 4 68 955 27.6575 123.550 T 72 957 27.5768 123.444 4 73 3 14
1982213N13145 1982 55 WP MM CECIL 1982-08-11 00:00:00 TS 27.7200 123.480 60 960 tokyo main 198 194 OOOO______O___ jtwc_wp WP121982 27.7000 123.500 70 1 27.7000 123.400 4 60 960 9 50 50 8 200 175 0 27.7000 123.400 4 68 955 27.8000 123.600 T 70 960 27.7000 123.500 4 70 3 23
1982213N13145 1982 55 WP MM CECIL 1982-08-11 03:00:00 TS 27.8169 123.553 main 203 200 PPPP______P___ WP121982 27.8425 123.478 67 1 27.7425 123.528 4 65 962 9 55 55 8 187 162 27.7125 123.513 4 68 957 27.9425 123.650 T 67 962 27.8444 123.598 4 67 3 35
1982213N13145 1982 55 WP MM CECIL 1982-08-11 06:00:00 TS 27.9410 123.661 70 965 tokyo main 210 208 OOOO______P___ jtwc_wp WP121982 28.0000 123.500 65 1 27.8000 123.700 5 70 965 9 60 60 8 175 150 0 27.8000 123.700 4 68 960 28.1000 123.700 T 65 965 28.0051 123.707 4 65 4 36
1982213N13145 1982 55 WP MM CECIL 1982-08-11 09:00:00 TS 28.1567 123.831 main 207 207 PPPP______P___ WP121982 28.1851 123.692 62 0 28.0051 123.915 5 70 965 9 60 60 8 187 150 28.1202 123.987 4 68 962 28.2850 123.750 T 65 967 28.1882 123.813 4 62 6 30
1982213N13145 1982 55 WP MM CECIL 1982-08-11 12:00:00 TS 28.4200 123.980 70 965 tokyo main 214 202 OOOO______O___ jtwc_wp WP121982 28.4000 123.900 60 0 28.3000 124.100 5 70 965 9 60 60 1 200 150 0 28.5000 124.200 4 68 965 28.5000 123.800 T 65 970 28.4000 123.900 2 60 6 18
1982213N13145 1982 55 WP MM CECIL 1982-08-11 15:00:00 TS 28.6792 124.025 main 202 197 PPPP______P___ WP121982 28.6350 123.980 57 0 28.6499 124.195 5 70 965 9 55 55 1 200 150 28.7500 124.145 4 68 965 28.7350 123.857 T 62 972 28.6259 123.947 2 57 5 4
1982213N13145 1982 55 WP MM CECIL 1982-08-11 18:00:00 TS 28.9565 124.015 70 965 tokyo main 195 193 OOOO______P___ jtwc_wp WP121982 28.9000 124.000 55 0 29.0000 124.200 5 70 965 9 50 50 2 200 150 0 29.0000 124.000 4 68 965 29.0000 123.900 STS 60 975 28.8825 123.973 2 55 6 356
1982213N13145 1982 55 WP MM CECIL 1982-08-11 21:00:00 TS 29.2486 123.986 main 193 193 PPPP______P___ WP121982 29.1775 124.008 52 0 29.2575 124.108 5 65 967 9 62 50 2 225 150 29.3425 123.928 4 63 967 29.2925 123.900 STS 60 975 29.1728 123.987 2 52 6 356
1982213N13145 1982 55 WP MM CECIL 1982-08-12 00:00:00 TS 29.5600 123.960 60 970 tokyo main 198 198 OOOO______O___ jtwc_wp WP121982 29.5000 124.000 50 0 29.5000 124.000 4 60 970 2 75 50 2 250 150 0 29.7000 123.900 3 58 970 29.6000 123.900 STS 60 975 29.5000 124.000 2 50 6 0
1982213N13145 1982 55 WP MM CECIL 1982-08-12 03:00:00 TS 29.8683 123.980 main 202 202 PPPP______P___ WP121982 29.8850 123.993 50 0 29.7550 123.978 4 60 972 2 62 50 2 250 137 29.9850 123.942 3 58 970 29.8850 123.935 STS 57 977 29.8316 124.052 2 50 7 5
1982213N13145 1982 55 WP MM CECIL 1982-08-12 06:00:00 TS 30.2205 124.020 60 975 tokyo main 206 206 OOOO______P___ jtwc_wp WP121982 30.3000 124.000 50 0 30.1000 124.000 4 60 975 9 50 50 2 250 125 0 30.3000 124.000 3 58 970 30.2000 124.000 STS 55 980 30.2025 124.101 2 50 8 6
1982213N13145 1982 55 WP MM CECIL 1982-08-12 09:00:00 TS 30.6389 124.082 main 212 209 PPPP______P___ WP121982 30.6850 124.057 50 0 30.6124 124.109 4 60 975 9 50 50 2 250 125 30.7200 124.008 3 58 970 30.5550 124.115 STS 55 980 30.6222 124.124 2 50 9 4
1982213N13145 1982 55 WP MM CECIL 1982-08-12 12:00:00 TS 31.1200 124.100 60 975 tokyo main 210 198 OOOO______O___ jtwc_wp WP121982 31.1000 124.100 50 0 31.2000 124.100 4 60 975 9 50 50 2 250 125 0 31.2000 124.000 3 58 970 31.0000 124.200 STS 55 980 31.1000 124.100 2 50 10 356
1982213N13145 1982 55 WP MM CECIL 1982-08-12 15:00:00 TS 31.6445 124.008 main 198 189 PPPP______P___ WP121982 31.5549 124.094 47 0 31.7505 123.731 4 57 975 9 50 50 2 225 112 31.6850 124.022 3 53 972 31.5775 124.188 STS 52 982 31.6548 124.005 2 48 11 349
1982213N13145 1982 55 WP MM CECIL 1982-08-12 18:00:00 TS 32.2125 123.852 55 975 tokyo main 196 187 OOOO______P___ jtwc_wp WP121982 32.1000 124.000 45 0 32.3000 123.300 4 55 975 9 50 50 2 200 100 0 32.2000 124.000 3 48 975 32.2000 124.100 STS 50 985 32.2627 123.861 2 47 12 347
1982213N13145 1982 55 WP MM CECIL 1982-08-12 21:00:00 TS 32.8003 123.683 main 207 204 PPPP______P___ WP121982 32.7851 123.781 45 0 32.8498 123.097 4 52 977 9 2 225 100 32.7350 123.880 3 48 977 32.7425 123.972 STS 50 985 32.8892 123.686 2 46 12 346
1982213N13145 1982 55 WP MM CECIL 1982-08-13 00:00:00 TS 33.4000 123.500 50 980 tokyo main 225 225 OOOO______O___ jtwc_wp WP121982 33.5000 123.500 45 0 33.4000 123.000 4 50 980 0 3 250 100 0 33.3000 123.700 3 48 980 33.3000 123.800 STS 50 985 33.5000 123.500 2 45 12 346
1982213N13145 1982 55 WP MM CECIL 1982-08-13 03:00:00 TS 34.0061 123.312 main 250 250 PPPP______P___ WP121982 34.1375 123.228 45 0 33.9500 122.935 4 47 980 0 3 212 100 33.9150 123.500 3 48 980 33.9650 123.600 STS 47 987 34.0629 123.297 2 45 12 346
1982213N13145 1982 55 WP MM CECIL 1982-08-13 06:00:00 TS 34.5805 123.138 45 980 tokyo main 255 199 OOOO______P___ jtwc_wp WP121982 34.7000 123.000 45 0 34.5000 122.900 3 45 980 0 3 175 100 0 34.5000 123.300 3 48 980 34.6000 123.400 TS 45 990 34.6027 123.092 2 45 11 347
1982213N13145 1982 55 WP MM CECIL 1982-08-13 09:00:00 TS 35.0827 122.998 main 199 154 PPPP______P___ WP121982 35.1724 122.862 45 0 35.0650 122.843 3 42 982 0 3 150 100 34.9724 123.142 3 48 982 35.0875 123.227 TS 45 990 35.1161 122.916 2 45 10 349
1982213N13145 1982 55 WP MM CECIL 1982-08-13 12:00:00 TS 35.5400 122.900 40 985 tokyo main 154 99 OOOO______O___ jtwc_wp WP121982 35.6000 122.800 45 0 35.6000 122.800 3 40 985 0 4 125 100 0 35.4000 123.000 3 48 985 35.5000 123.100 TS 45 990 35.6000 122.800 2 45 9 351
1982213N13145 1982 55 WP MM CECIL 1982-08-13 15:00:00 TS 35.9900 122.820 main 99 61 PPPP______P___ WP121982 36.0575 122.770 42 0 36.0575 122.770 3 40 987 0 4 112 100 35.8350 122.806 3 48 985 35.9225 123.013 TS 42 990 36.0776 122.740 2 43 9 356
1982213N13145 1982 55 WP MM CECIL 1982-08-13 18:00:00 TS 36.4248 122.810 40 990 tokyo main 61 34 OOOO______P___ jtwc_wp WP121982 36.5000 122.800 40 0 36.5000 122.800 3 40 990 0 9 100 100 0 36.3000 122.700 3 48 985 36.3000 123.000 TS 40 990 36.5242 122.750 2 42 9 3
1982213N13145 1982 55 WP MM CECIL 1982-08-13 21:00:00 TS 36.8687 122.897 main 35 34 PPPP______P___ WP121982 36.9300 122.877 40 0 37.0075 122.927 3 37 992 0 9 85 85 36.8725 122.804 3 43 987 36.5998 123.040 TS 40 990 36.9337 122.834 2 41 9 13
1982213N13145 1982 55 WP MM CECIL 1982-08-14 00:00:00 TS 37.2800 123.060 35 994 tokyo main 44 44 OOOO______O___ jtwc_wp WP121982 37.3000 123.000 40 0 37.5000 123.100 3 35 994 0 9 70 70 0 37.4000 123.000 2 38 990 36.9000 123.200 TS 40 990 37.3000 123.000 2 40 8 19
1982213N13145 1982 55 WP MM CECIL 1982-08-14 03:00:00 TS 37.6347 123.228 main 62 62 PPPP______P___ WP121982 37.5646 123.091 40 0 37.9374 123.228 3 994 0 9 37.7672 123.105 2 38 991 37.2846 123.468 TS 37 992 37.6197 123.247 2 38 7 25
1982213N13145 1982 55 WP MM CECIL 1982-08-14 06:00:00 TS 37.9558 123.466 994 tokyo main 105 79 OOOO______P___ jtwc_wp WP121982 37.8000 123.300 40 0 38.3000 123.400 2 994 0 0 0 38.0000 123.300 2 38 992 37.7000 123.900 TS 35 995 37.9015 123.561 2 37 8 38
1982213N13145 1982 55 WP MM CECIL 1982-08-14 09:00:00 TS 38.2334 123.813 main 79 54 PPPP______P___ WP121982 38.1000 123.725 37 0 38.5948 123.648 2 996 0 0 38.1072 123.668 2 38 993 38.1061 124.501 TS 30 997 38.1576 123.918 2 36 8 50
1982213N13145 1982 55 WP MM CECIL 1982-08-14 12:00:00 TS 38.4692 124.246 998 tokyo main 62 28 OOOO______O___ jtwc_wp WP121982 38.4000 124.300 35 0 38.8000 124.000 2 998 0 0 0 38.2000 124.200 2 38 995 38.5000 125.200 TD 25 999 38.4000 124.300 2 35 8 59
1982213N13145 1982 55 WP MM CECIL 1982-08-14 15:00:00 TS 38.6391 124.692 main 28 0 PPP___________ WP121982 38.6632 124.937 32 -1 38.8626 124.472 2 999 0 0 38.4035 124.789 2 33 997 TD 2 9 66
1982213N13145 1982 55 WP MM CECIL 1982-08-14 18:00:00 TS 38.8556 125.333 1000 tokyo main 0 0 OOO___________ jtwc_wp WP121982 38.9000 125.600 30 -1 39.0000 125.000 2 1000 0 0 0 38.7000 125.600 1 29 1000 2 13 61
1982213N13145 1982 55 WP MM CECIL 1982-08-14 21:00:00 TS 39.2477 126.108 main 0 0 _PP___________ WP121982 -1 39.3649 125.501 2 1002 0 0 39.1305 126.714 1 29 1002 2 16 58
1982213N13145 1982 55 WP MM CECIL 1982-08-15 00:00:00 TS 39.7143 127.143 1004 tokyo main 0 0 _OO___________ -1 40.0000 126.000 2 1004 0 0 0 39.5000 128.000 1 29 1004 19 65
1982213N13145 1982 55 WP MM CECIL 1982-08-15 03:00:00 TS 40.0672 128.368 main 0 0 _PP___________ -1 40.9204 126.496 2 1004 0 0 39.6405 129.304 1 29 1004 21 80
1982213N13145 1982 55 WP MM CECIL 1982-08-15 06:00:00 MX 40.0800 129.800 1004 tokyo main 74 74 _OO___________ -1 42.0000 127.000 6 1004 0 0 0 39.6000 130.500 1 29 1004 24 105
1982213N13145 1982 55 WP MM CECIL 1982-08-15 09:00:00 TS 39.4430 131.418 main 212 212 __P___________ -1 6 0 0 39.4430 131.418 1 29 1004 20 115
1982213N13145 1982 55 WP MM CECIL 1982-08-15 12:00:00 TS 39.2000 132.200 main 277 277 __O___________ -1 39.2000 132.200 1 29 1004 13 111
1982213N13145 1982 55 WP MM CECIL 1982-08-15 15:00:00 TS 38.9721 133.022 main 344 299 __P___________ -1 38.9721 133.022 1 29 1004 13 112
1982213N13145 1982 55 WP MM CECIL 1982-08-15 18:00:00 TS 38.7000 133.800 main 299 224 __O___________ -1 38.7000 133.800 1 29 1004 14 118
1982213N13145 1982 55 WP MM CECIL 1982-08-15 21:00:00 TS 38.3277 134.584 main 217 155 __P___________ -1 38.3277 134.584 1 26 1004 13 123
1982213N13145 1982 55 WP MM CECIL 1982-08-16 00:00:00 ET 38.0000 135.200 main 155 127 __O___________ -1 38.0000 135.200 9 23 1004 9 121
1982213N13145 1982 55 WP MM CECIL 1982-08-16 03:00:00 ET 37.8694 135.539 main 127 106 __P___________ -1 37.8694 135.539 9 23 1004 4 117
1982213N13145 1982 55 WP MM CECIL 1982-08-16 06:00:00 ET 37.8000 135.700 main 106 94 __O___________ -1 37.8000 135.700 9 23 1004 3 132
1982213N13145 1982 55 WP MM CECIL 1982-08-16 09:00:00 ET 37.6574 135.830 main 94 78 __P___________ -1 37.6574 135.830 9 23 1004 3 153
1982213N13145 1982 55 WP MM CECIL 1982-08-16 12:00:00 ET 37.5000 135.900 main 78 65 __O___________ -1 37.5000 135.900 9 23 1004 3 160
1982213N13145 1982 55 WP MM CECIL 1982-08-16 15:00:00 ET 37.3800 135.965 main 65 61 __P___________ -1 37.3800 135.965 9 23 1004 3 166
1982213N13145 1982 55 WP MM CECIL 1982-08-16 18:00:00 ET 37.2000 136.000 main 61 54 __O___________ -1 37.2000 136.000 9 23 1005 5 170
1982213N13145 1982 55 WP MM CECIL 1982-08-16 21:00:00 ET 36.8797 136.076 main 54 24 __P___________ -1 36.8797 136.076 9 21 1005 7 0
1982213N13145 1982 55 WP MM CECIL 1982-08-17 00:00:00 ET 36.5000 136.000 main 24 14 __O___________ -1 36.5000 136.000 9 19 1006 8 207
1982213N13145 1982 55 WP MM CECIL 1982-08-17 03:00:00 ET 36.1579 135.610 main 42 11 __P___________ -1 36.1579 135.610 9 19 1006 10 226
1982213N13145 1982 55 WP MM CECIL 1982-08-17 06:00:00 ET 35.8000 135.100 main 11 0 __O___________ -1 35.8000 135.100 9 19 1006 11 227
1982213N13145 1982 55 WP MM CECIL 1982-08-17 09:00:00 ET 35.4301 134.647 main 0 0 __P___________ -1 35.4301 134.647 9 18 1007 10 219
1982213N13145 1982 55 WP MM CECIL 1982-08-17 12:00:00 ET 35.0000 134.300 main 0 0 __O___________ -1 35.0000 134.300 9 17 1008 11 204
1982213N13145 1982 55 WP MM CECIL 1982-08-17 15:00:00 ET 34.4648 134.125 main 11 0 __P___________ -1 34.4648 134.125 9 17 1008 11 188
1982213N13145 1982 55 WP MM CECIL 1982-08-17 18:00:00 ET 33.9000 134.100 main 0 0 __O___________ -1 33.9000 134.100 9 17 1008 11 178
1982213N13145 1982 55 WP MM CECIL 1982-08-17 21:00:00 ET 33.3325 134.163 main 0 0 __P___________ -1 33.3325 134.163 9 17 1008 10 170
1982213N13145 1982 55 WP MM CECIL 1982-08-18 00:00:00 ET 32.9000 134.300 main 34 34 __O___________ -1 32.9000 134.300 9 17 1008 6 159
1982213N13145 1982 55 WP MM CECIL 1982-08-18 03:00:00 ET 32.7325 134.435 main 58 58 __P___________ -1 32.7325 134.435 9 17 1008 3 128
1982213N13145 1982 55 WP MM CECIL 1982-08-18 06:00:00 ET 32.7000 134.600 main 67 67 __O___________ -1 32.7000 134.600 9 17 1009 3 110
1982213N13145 1982 55 WP MM CECIL 1982-08-18 09:00:00 ET 32.6274 134.778 main 87 87 __P___________ -1 32.6274 134.778 9 17 1009 4 107
1982213N13145 1982 55 WP MM CECIL 1982-08-18 12:00:00 ET 32.6000 135.000 main 100 100 __O___________ -1 32.6000 135.000 9 17 1010 4 90
1982213N13145 1982 55 WP MM CECIL 1982-08-18 15:00:00 ET 32.6276 135.292 main 100 80 __P___________ -1 32.6276 135.292 9 17 1010 5 79
1982213N13145 1982 55 WP MM CECIL 1982-08-18 18:00:00 ET 32.7000 135.600 main 80 66 __O___________ -1 32.7000 135.600 9 17 1010 5 71
1982213N13145 1982 55 WP MM CECIL 1982-08-18 21:00:00 ET 32.7950 135.865 main 67 58 __P___________ -1 32.7950 135.865 9 17 1010 5 65
1982213N13145 1982 55 WP MM CECIL 1982-08-19 00:00:00 ET 32.9000 136.100 main 62 __O___________ -1 32.9000 136.100 9 17 1010 4 62

デジタル台風データ・検索

IBTrACS Databaseについて

本データベースは、米国NOAAが公開する1842年以降の世界の熱帯低気圧のベストトラックデータアーカイブInternational Best Track Archive for Climate Stewardship (IBTrACS)を、ウェブで閲覧しやすい形式に変換したものです。

最終更新日:2021-12-03